createdAt,value
2019-03-10T00:02:39.276Z,9.30
2019-03-10T00:07:32.894Z,9.40
2019-03-10T00:12:26.509Z,9.40
2019-03-10T00:17:20.199Z,9.60
2019-03-10T00:22:14.107Z,9.60
2019-03-10T00:27:09.381Z,9.70
2019-03-10T00:32:03.093Z,9.80
2019-03-10T00:36:56.901Z,9.70
2019-03-10T00:42:49.876Z,9.60
2019-03-10T00:48:27.181Z,9.50
2019-03-10T00:53:20.750Z,9.50
2019-03-10T00:58:14.523Z,9.30
2019-03-10T01:03:08.643Z,9.30
2019-03-10T01:08:03.306Z,9.30
2019-03-10T01:12:57.022Z,9.30
2019-03-10T01:17:52.488Z,9.20
2019-03-10T01:22:46.179Z,9.10
2019-03-10T01:27:39.917Z,9.10
2019-03-10T01:33:00.236Z,9.10
2019-03-10T01:37:53.800Z,9.10
2019-03-10T01:42:47.382Z,9.10
2019-03-10T01:47:40.741Z,9.00
2019-03-10T01:52:34.563Z,9.00
2019-03-10T01:57:28.147Z,9.00
2019-03-10T02:02:25.769Z,9.00
2019-03-10T02:07:17.531Z,8.90
2019-03-10T02:12:11.547Z,8.90
2019-03-10T02:17:05.237Z,8.90
2019-03-10T02:22:00.551Z,8.80
2019-03-10T02:26:55.358Z,8.80
2019-03-10T02:31:49.259Z,8.80
2019-03-10T02:36:42.831Z,8.80
2019-03-10T02:41:36.322Z,8.80
2019-03-10T02:46:30.509Z,8.80
2019-03-10T02:51:24.099Z,8.80
2019-03-10T02:56:17.672Z,8.80
2019-03-10T03:01:11.250Z,8.80
2019-03-10T03:06:04.800Z,8.90
2019-03-10T03:10:58.439Z,8.90
2019-03-10T03:15:53.220Z,8.90
2019-03-10T03:20:46.887Z,8.90
2019-03-10T03:25:40.739Z,8.80
2019-03-10T03:30:34.415Z,8.60
2019-03-10T03:35:57.969Z,8.60
2019-03-10T03:40:57.371Z,8.60
2019-03-10T03:45:50.716Z,8.60
2019-03-10T03:50:43.831Z,8.60
2019-03-10T03:55:37.127Z,8.60
2019-03-10T04:00:30.862Z,8.40
2019-03-10T04:05:24.441Z,8.00
2019-03-10T04:10:17.990Z,7.80
2019-03-10T04:15:11.693Z,7.70
2019-03-10T04:20:05.598Z,7.60
2019-03-10T04:24:59.185Z,7.60
2019-03-10T04:29:52.991Z,7.50
2019-03-10T04:34:46.683Z,7.40
2019-03-10T04:39:40.435Z,7.40
2019-03-10T04:44:36.194Z,7.40
2019-03-10T04:49:30.432Z,7.30
2019-03-10T04:54:43.893Z,7.30
2019-03-10T04:59:36.955Z,7.30
2019-03-10T05:04:31.643Z,7.20
2019-03-10T05:09:25.605Z,7.10
2019-03-10T05:14:19.431Z,7.10
2019-03-10T05:19:13.052Z,7.00
2019-03-10T05:24:14.392Z,6.80
2019-03-10T05:29:07.998Z,6.80
2019-03-10T05:34:01.788Z,6.70
2019-03-10T05:38:55.374Z,6.70
2019-03-10T05:43:49.149Z,6.60
2019-03-10T05:48:42.747Z,6.50
2019-03-10T05:53:36.572Z,6.40
2019-03-10T05:58:30.196Z,6.30
2019-03-10T06:03:24.014Z,6.20
2019-03-10T06:08:19.095Z,6.10
2019-03-10T06:13:14.647Z,6.10
2019-03-10T06:18:13.870Z,6.10
2019-03-10T06:23:05.378Z,6.10
2019-03-10T06:27:59.035Z,6.20
2019-03-10T06:32:52.749Z,6.00
2019-03-10T06:37:46.439Z,6.00
2019-03-10T06:42:39.913Z,5.90
2019-03-10T06:47:33.551Z,6.00
2019-03-10T06:52:27.069Z,5.90
2019-03-10T06:57:20.548Z,6.00
2019-03-10T07:02:14.016Z,6.10
2019-03-10T07:07:07.700Z,6.10
2019-03-10T07:12:01.202Z,6.20
2019-03-10T07:16:54.782Z,6.30
2019-03-10T07:21:48.352Z,6.40
2019-03-10T07:26:41.846Z,6.50
2019-03-10T07:32:04.237Z,6.70
2019-03-10T07:37:08.860Z,6.90
2019-03-10T07:42:10.496Z,7.00
2019-03-10T07:47:26.415Z,7.10
2019-03-10T07:52:30.851Z,7.10
2019-03-10T07:57:53.267Z,7.20
2019-03-10T08:03:26.769Z,7.40
2019-03-10T08:08:27.686Z,7.60
2019-03-10T08:13:41.540Z,7.90
2019-03-10T08:18:45.245Z,8.40
2019-03-10T08:23:57.104Z,9.10
2019-03-10T08:29:10.762Z,9.90
2019-03-10T08:34:29.941Z,10.10
2019-03-10T08:39:42.083Z,11.50
2019-03-10T08:44:42.151Z,11.70
2019-03-10T08:49:58.076Z,11.50
2019-03-10T08:55:22.814Z,11.70
2019-03-10T09:00:35.910Z,12.00
2019-03-10T09:05:55.134Z,13.40
2019-03-10T09:11:08.474Z,13.90
2019-03-10T09:16:21.720Z,14.00
2019-03-10T09:21:47.065Z,13.90
2019-03-10T09:27:00.185Z,13.80
2019-03-10T09:32:02.988Z,13.70
2019-03-10T09:37:09.163Z,13.20
2019-03-10T09:42:33.748Z,13.10
2019-03-10T09:47:46.501Z,12.90
2019-03-10T09:53:04.351Z,12.80
2019-03-10T09:58:25.914Z,13.00
2019-03-10T10:03:38.597Z,12.80
2019-03-10T10:08:53.915Z,13.10
2019-03-10T10:14:05.535Z,13.50
2019-03-10T10:19:20.298Z,13.90
2019-03-10T10:24:24.021Z,14.80
2019-03-10T10:29:45.919Z,15.30
2019-03-10T10:34:58.606Z,15.20
2019-03-10T10:40:11.285Z,15.00
2019-03-10T10:45:23.558Z,14.30
2019-03-10T10:50:34.021Z,13.50
2019-03-10T10:55:46.685Z,12.90
2019-03-10T11:00:55.866Z,12.60
2019-03-10T11:06:14.529Z,12.60
2019-03-10T11:11:29.767Z,12.70
2019-03-10T11:16:31.680Z,13.00
2019-03-10T11:21:39.970Z,13.50
2019-03-10T11:26:46.969Z,14.00
2019-03-10T11:31:46.379Z,15.00
2019-03-10T11:37:04.936Z,15.60
2019-03-10T11:42:06.288Z,15.80
2019-03-10T11:47:04.866Z,15.40
2019-03-10T11:52:29.669Z,14.90
2019-03-10T11:57:38.400Z,14.40
2019-03-10T12:02:49.805Z,13.70
2019-03-10T12:08:05.584Z,14.10
2019-03-10T12:12:58.769Z,14.30
2019-03-10T12:17:51.959Z,14.50
2019-03-10T12:22:45.158Z,14.40
2019-03-10T12:27:38.354Z,14.50
2019-03-10T12:32:31.642Z,14.40
2019-03-10T12:37:24.843Z,14.20
2019-03-10T12:42:18.150Z,13.90
2019-03-10T12:47:12.460Z,13.90
2019-03-10T12:52:05.594Z,14.00
2019-03-10T12:56:58.794Z,13.70
2019-03-10T13:01:52.031Z,13.50
2019-03-10T13:06:45.112Z,14.20
2019-03-10T13:11:38.368Z,14.10
2019-03-10T13:16:31.562Z,14.10
2019-03-10T13:21:26.225Z,14.20
2019-03-10T13:26:19.529Z,14.30
2019-03-10T13:31:12.831Z,14.90
2019-03-10T13:36:06.048Z,15.20
2019-03-10T13:40:59.140Z,15.60
2019-03-10T13:45:52.483Z,15.80
2019-03-10T13:50:45.659Z,15.50
2019-03-10T13:55:38.860Z,15.20
2019-03-10T14:00:32.102Z,15.00
2019-03-10T14:05:25.693Z,14.40
2019-03-10T14:10:18.873Z,14.80
2019-03-10T14:15:12.322Z,14.80
2019-03-10T14:20:05.866Z,14.70
2019-03-10T14:24:59.217Z,14.60
2019-03-10T14:29:52.414Z,14.50
2019-03-10T14:34:45.708Z,14.40
2019-03-10T14:39:38.934Z,14.60
2019-03-10T14:44:32.106Z,14.20
2019-03-10T14:49:25.405Z,13.70
2019-03-10T14:54:18.617Z,13.40
2019-03-10T14:59:11.808Z,13.00
2019-03-10T15:04:05.016Z,12.70
2019-03-10T15:08:58.440Z,12.50
2019-03-10T15:13:51.699Z,12.30
2019-03-10T15:18:45.315Z,12.10
2019-03-10T15:23:40.372Z,12.10
2019-03-10T15:28:33.665Z,11.90
2019-03-10T15:33:26.892Z,11.90
2019-03-10T15:38:20.175Z,11.60
2019-03-10T15:43:13.404Z,11.50
2019-03-10T15:48:06.622Z,11.30
2019-03-10T15:52:59.740Z,11.20
2019-03-10T15:57:52.948Z,11.00
2019-03-10T16:02:46.308Z,10.80
2019-03-10T16:07:39.450Z,10.70
2019-03-10T16:12:32.705Z,10.60
2019-03-10T16:17:25.935Z,10.70
2019-03-10T16:22:19.317Z,10.60
2019-03-10T16:27:12.518Z,10.70
2019-03-10T16:32:06.064Z,10.40
2019-03-10T16:36:59.266Z,10.30
2019-03-10T16:41:52.513Z,10.10
2019-03-10T16:46:45.707Z,9.90
2019-03-10T16:51:38.923Z,9.90
2019-03-10T16:56:32.214Z,9.70
2019-03-10T17:01:25.517Z,9.60
2019-03-10T17:06:18.747Z,9.50
2019-03-10T17:11:11.968Z,9.40
2019-03-10T17:16:05.176Z,9.30
2019-03-10T17:20:59.151Z,9.20
2019-03-10T17:25:52.483Z,9.00
2019-03-10T17:30:45.788Z,8.90
2019-03-10T17:35:39.022Z,8.90
2019-03-10T17:40:32.199Z,8.80
2019-03-10T17:45:25.599Z,8.60
2019-03-10T17:50:18.911Z,8.60
2019-03-10T17:55:12.171Z,8.60
2019-03-10T18:00:06.987Z,8.70
2019-03-10T18:05:00.343Z,8.60
2019-03-10T18:09:53.443Z,8.60
2019-03-10T18:14:46.540Z,8.40
2019-03-10T18:19:39.622Z,8.20
2019-03-10T18:24:32.713Z,8.20
2019-03-10T18:29:25.884Z,8.10
2019-03-10T18:34:18.991Z,8.00
2019-03-10T18:39:12.489Z,8.00
2019-03-10T18:44:05.559Z,8.00
2019-03-10T18:48:58.642Z,7.90
2019-03-10T18:53:51.727Z,8.00
2019-03-10T18:58:44.831Z,7.90
2019-03-10T19:03:37.919Z,7.90
2019-03-10T19:08:31.010Z,8.00
2019-03-10T19:13:24.157Z,8.00
2019-03-10T19:18:17.252Z,8.00
2019-03-10T19:23:10.352Z,7.90
2019-03-10T19:28:03.426Z,8.00
2019-03-10T19:32:56.544Z,8.00
2019-03-10T19:37:49.650Z,7.90
2019-03-10T19:42:42.776Z,7.70
2019-03-10T19:47:35.892Z,7.70
2019-03-10T19:52:29.031Z,5.90
2019-03-10T19:57:22.162Z,5.90
2019-03-10T20:02:15.304Z,5.50
2019-03-10T20:07:08.397Z,5.30
2019-03-10T20:12:01.494Z,5.20
2019-03-10T20:16:54.569Z,5.20
2019-03-10T20:21:47.655Z,5.20
2019-03-10T20:26:40.756Z,5.30
2019-03-10T20:31:33.873Z,5.50
2019-03-10T20:36:28.636Z,5.70
2019-03-10T20:41:22.118Z,4.10
2019-03-10T20:46:15.281Z,3.40
2019-03-10T20:51:08.378Z,3.20
2019-03-10T20:56:01.461Z,3.10
2019-03-10T21:00:54.654Z,3.20
2019-03-10T21:05:47.754Z,3.30
2019-03-10T21:10:40.872Z,3.50
2019-03-10T21:15:34.947Z,3.50
2019-03-10T21:20:28.048Z,3.20
2019-03-10T21:25:21.191Z,3.10
2019-03-10T21:30:17.121Z,3.10
2019-03-10T21:35:17.710Z,3.10
2019-03-10T21:40:06.017Z,3.00
2019-03-10T21:44:59.119Z,2.90
2019-03-10T21:49:52.211Z,2.80
2019-03-10T21:54:45.335Z,2.70
2019-03-10T21:59:38.423Z,2.60
2019-03-10T22:04:31.520Z,2.50
2019-03-10T22:09:24.709Z,2.60
2019-03-10T22:14:17.802Z,2.50
2019-03-10T22:19:21.985Z,2.60
2019-03-10T22:24:05.908Z,2.60
2019-03-10T22:28:58.991Z,2.70
2019-03-10T22:33:52.096Z,2.80
2019-03-10T22:38:45.234Z,2.90
2019-03-10T22:43:38.444Z,3.20
2019-03-10T22:48:31.660Z,3.40
2019-03-10T22:53:24.768Z,3.70
2019-03-10T22:58:18.019Z,3.80
2019-03-10T23:03:11.417Z,3.90
2019-03-10T23:08:04.614Z,4.00
2019-03-10T23:12:57.701Z,4.00
2019-03-10T23:17:50.815Z,4.00
2019-03-10T23:22:44.071Z,4.00
2019-03-10T23:27:37.899Z,4.00
2019-03-10T23:32:31.080Z,4.10
2019-03-10T23:37:24.277Z,4.10
2019-03-10T23:42:17.366Z,4.10
2019-03-10T23:47:10.502Z,4.30
2019-03-10T23:52:03.729Z,4.40
2019-03-10T23:56:57.039Z,4.30
